createdAt,value
2022-12-18T00:01:38.617Z,62.74
2022-12-18T00:04:06.780Z,62.77
2022-12-18T00:06:33.898Z,62.83
2022-12-18T00:09:01.911Z,62.31
2022-12-18T00:11:30.456Z,62.76
2022-12-18T00:13:59.556Z,62.74
2022-12-18T00:16:27.516Z,63.00
2022-12-18T00:18:56.147Z,62.72
2022-12-18T00:21:22.916Z,63.59
2022-12-18T00:23:50.496Z,63.49
2022-12-18T00:26:33.218Z,64.06
2022-12-18T00:29:10.742Z,64.53
2022-12-18T00:31:38.773Z,63.77
2022-12-18T00:34:05.575Z,63.42
2022-12-18T00:36:35.861Z,64.20
2022-12-18T00:39:05.637Z,64.82
2022-12-18T00:41:51.570Z,65.11
2022-12-18T00:44:19.773Z,64.47
2022-12-18T00:46:48.283Z,64.25
2022-12-18T00:49:18.903Z,64.30
2022-12-18T00:51:46.585Z,63.39
2022-12-18T00:54:14.082Z,63.84
2022-12-18T00:56:49.724Z,63.81
2022-12-18T00:59:19.032Z,63.74
2022-12-18T01:01:46.746Z,63.94
2022-12-18T01:04:13.721Z,64.22
2022-12-18T01:06:41.038Z,64.02
2022-12-18T01:09:07.710Z,63.84
2022-12-18T01:11:36.897Z,64.40
2022-12-18T01:14:04.743Z,65.02
2022-12-18T01:16:31.634Z,64.37
2022-12-18T01:18:58.463Z,64.25
2022-12-18T01:21:27.840Z,64.10
2022-12-18T01:23:56.503Z,63.85
2022-12-18T01:26:25.236Z,63.76
2022-12-18T01:28:51.885Z,63.01
2022-12-18T01:31:34.202Z,62.91
2022-12-18T01:34:03.485Z,62.84
2022-12-18T01:36:36.599Z,62.61
2022-12-18T01:39:06.123Z,62.33
2022-12-18T01:41:52.108Z,61.55
2022-12-18T01:44:56.475Z,61.38
2022-12-18T01:47:43.253Z,61.30
2022-12-18T01:50:21.012Z,61.94
2022-12-18T01:52:51.003Z,61.86
2022-12-18T01:55:21.077Z,61.82
2022-12-18T01:57:48.396Z,62.54
2022-12-18T02:00:19.308Z,62.31
2022-12-18T02:02:48.106Z,61.46
2022-12-18T02:05:19.891Z,61.29
2022-12-18T02:08:05.872Z,61.79
2022-12-18T02:10:34.921Z,61.22
2022-12-18T02:13:26.351Z,61.36
2022-12-18T02:16:22.665Z,61.51
2022-12-18T02:18:55.130Z,62.54
2022-12-18T02:21:48.639Z,62.49
2022-12-18T02:24:19.888Z,63.10
2022-12-18T02:26:52.476Z,61.97
2022-12-18T02:29:28.466Z,62.21
2022-12-18T02:32:00.975Z,62.53
2022-12-18T02:34:31.773Z,62.42
2022-12-18T02:37:01.516Z,62.93
2022-12-18T02:39:30.378Z,63.49
2022-12-18T02:42:08.622Z,63.20
2022-12-18T02:44:47.123Z,62.78
2022-12-18T02:47:21.134Z,62.69
2022-12-18T02:50:20.016Z,62.56
2022-12-18T02:53:00.850Z,61.82
2022-12-18T02:55:51.799Z,61.73
2022-12-18T02:58:28.038Z,62.28
2022-12-18T03:01:08.761Z,62.17
2022-12-18T03:03:51.877Z,62.92
2022-12-18T03:06:28.306Z,62.63
2022-12-18T03:09:00.850Z,61.46
2022-12-18T03:11:49.581Z,61.82
2022-12-18T03:14:21.048Z,61.20
2022-12-18T03:16:53.501Z,60.55
2022-12-18T03:19:26.566Z,61.04
2022-12-18T03:21:57.178Z,61.58
2022-12-18T03:24:28.877Z,61.74
2022-12-18T03:27:02.065Z,62.46
2022-12-18T03:29:38.138Z,62.10
2022-12-18T03:32:11.788Z,62.61
2022-12-18T03:34:42.668Z,61.29
2022-12-18T03:37:12.521Z,60.80
2022-12-18T03:39:39.251Z,59.93
2022-12-18T03:42:24.256Z,59.96
2022-12-18T03:45:10.405Z,60.36
2022-12-18T03:47:54.112Z,60.13
2022-12-18T03:50:26.217Z,61.26
2022-12-18T03:53:01.435Z,60.38
2022-12-18T03:55:31.456Z,60.49
2022-12-18T03:58:04.805Z,61.80
2022-12-18T04:00:42.326Z,62.48
2022-12-18T04:03:11.388Z,62.61
2022-12-18T04:05:48.097Z,61.55
2022-12-18T04:08:17.439Z,61.13
2022-12-18T04:10:51.323Z,61.78
2022-12-18T04:13:28.647Z,60.40
2022-12-18T04:15:56.381Z,59.79
2022-12-18T04:18:24.018Z,59.63
2022-12-18T04:20:50.757Z,59.73
2022-12-18T04:23:18.247Z,60.31
2022-12-18T04:25:48.038Z,59.76
2022-12-18T04:28:21.487Z,59.42
2022-12-18T04:30:49.815Z,59.88
2022-12-18T04:33:17.270Z,59.57
2022-12-18T04:35:44.495Z,59.51
2022-12-18T04:38:11.260Z,60.88
2022-12-18T04:40:39.278Z,60.99
2022-12-18T04:43:13.139Z,60.92
2022-12-18T04:45:40.229Z,60.36
2022-12-18T04:48:07.617Z,60.57
2022-12-18T04:50:34.326Z,61.36
2022-12-18T04:53:00.872Z,60.79
2022-12-18T04:55:28.539Z,61.64
2022-12-18T04:57:55.186Z,60.58
2022-12-18T05:00:22.352Z,60.04
2022-12-18T05:02:49.158Z,60.81
2022-12-18T05:05:16.096Z,60.41
2022-12-18T05:07:42.842Z,60.11
2022-12-18T05:10:10.390Z,59.28
2022-12-18T05:12:57.034Z,59.69
2022-12-18T05:15:23.931Z,59.50
2022-12-18T05:17:50.708Z,60.15
2022-12-18T05:20:17.410Z,60.11
2022-12-18T05:22:44.174Z,59.73
2022-12-18T05:25:11.099Z,60.31
2022-12-18T05:27:37.900Z,60.06
2022-12-18T05:30:05.228Z,60.60
2022-12-18T05:32:35.310Z,59.83
2022-12-18T05:35:02.325Z,59.16
2022-12-18T05:37:29.077Z,59.85
2022-12-18T05:39:55.912Z,59.33
2022-12-18T05:42:22.714Z,59.92
2022-12-18T05:44:49.318Z,60.32
2022-12-18T05:47:15.968Z,60.57
2022-12-18T05:49:42.608Z,61.40
2022-12-18T05:52:09.918Z,61.75
2022-12-18T05:54:36.739Z,62.03
2022-12-18T05:57:03.712Z,60.79
2022-12-18T05:59:30.344Z,60.31
2022-12-18T06:01:59.407Z,60.01
2022-12-18T06:04:29.251Z,60.66
2022-12-18T06:06:57.068Z,60.14
2022-12-18T06:09:23.859Z,59.94
2022-12-18T06:11:53.117Z,59.71
2022-12-18T06:14:19.956Z,60.21
2022-12-18T06:16:46.513Z,60.07
2022-12-18T06:19:16.782Z,59.35
2022-12-18T06:21:43.447Z,59.54
2022-12-18T06:24:10.169Z,59.09
2022-12-18T06:26:39.947Z,59.61
2022-12-18T06:29:06.792Z,59.14
2022-12-18T06:31:33.709Z,58.76
2022-12-18T06:34:02.729Z,58.74
2022-12-18T06:36:29.944Z,59.50
2022-12-18T06:38:57.651Z,59.41
2022-12-18T06:41:24.939Z,59.73
2022-12-18T06:43:54.620Z,59.10
2022-12-18T06:46:25.133Z,59.71
2022-12-18T06:48:52.076Z,60.14
2022-12-18T06:51:21.059Z,59.76
2022-12-18T06:53:47.940Z,60.11
2022-12-18T06:56:14.838Z,60.80
2022-12-18T06:58:41.657Z,60.87
2022-12-18T07:01:11.461Z,60.59
2022-12-18T07:03:40.828Z,61.09
2022-12-18T07:06:14.033Z,60.85
2022-12-18T07:08:40.739Z,60.98
2022-12-18T07:11:07.504Z,61.36
2022-12-18T07:13:34.125Z,60.94
2022-12-18T07:16:09.737Z,61.52
2022-12-18T07:18:39.883Z,61.70
2022-12-18T07:21:09.310Z,62.02
2022-12-18T07:23:37.056Z,62.56
2022-12-18T07:26:14.553Z,62.64
2022-12-18T07:28:42.230Z,62.26
2022-12-18T07:31:14.783Z,62.81
2022-12-18T07:33:42.384Z,62.25
2022-12-18T07:36:11.926Z,62.83
2022-12-18T07:38:38.835Z,63.33
2022-12-18T07:41:08.038Z,63.21
2022-12-18T07:43:35.547Z,63.28
2022-12-18T07:46:02.291Z,63.01
2022-12-18T07:48:29.986Z,62.83
2022-12-18T07:51:07.363Z,63.59
2022-12-18T07:53:35.191Z,62.23
2022-12-18T07:56:26.703Z,61.69
2022-12-18T07:58:51.738Z,61.71
2022-12-18T08:01:18.484Z,62.41
2022-12-18T08:03:45.774Z,62.32
2022-12-18T08:06:12.492Z,62.27
2022-12-18T08:08:41.130Z,61.89
2022-12-18T08:11:07.987Z,62.01
2022-12-18T08:13:34.713Z,61.86
2022-12-18T08:16:04.905Z,61.44
2022-12-18T08:18:36.965Z,60.96
2022-12-18T08:21:13.855Z,60.01
2022-12-18T08:23:43.344Z,60.70
2022-12-18T08:26:11.950Z,60.71
2022-12-18T08:28:39.195Z,60.46
2022-12-18T08:31:06.722Z,60.10
2022-12-18T08:33:34.186Z,60.43
2022-12-18T08:36:01.894Z,59.97
2022-12-18T08:38:28.542Z,59.13
2022-12-18T08:41:02.722Z,59.42
2022-12-18T08:43:47.882Z,60.04
2022-12-18T08:46:15.057Z,60.49
2022-12-18T08:48:42.140Z,59.81
2022-12-18T08:51:10.663Z,59.54
2022-12-18T08:53:38.551Z,59.05
2022-12-18T08:56:06.300Z,59.15
2022-12-18T08:58:33.109Z,59.38
2022-12-18T09:01:05.408Z,59.51
2022-12-18T09:03:32.300Z,58.96
2022-12-18T09:05:59.515Z,59.59
2022-12-18T09:08:26.898Z,59.64
2022-12-18T09:10:53.599Z,59.48
2022-12-18T09:13:22.891Z,59.98
2022-12-18T09:15:52.217Z,59.37
2022-12-18T09:18:23.164Z,59.15
2022-12-18T09:20:52.852Z,58.85
2022-12-18T09:23:21.725Z,58.49
2022-12-18T09:25:51.783Z,58.75
2022-12-18T09:28:22.730Z,58.31
2022-12-18T09:30:50.498Z,57.51
2022-12-18T09:33:18.390Z,57.43
2022-12-18T09:35:46.718Z,56.80
2022-12-18T09:38:19.935Z,56.31
2022-12-18T09:40:53.878Z,56.12
2022-12-18T09:43:43.227Z,55.90
2022-12-18T09:46:20.397Z,55.68
2022-12-18T09:48:51.117Z,55.43
2022-12-18T09:51:20.957Z,56.25
2022-12-18T09:53:54.987Z,55.86
2022-12-18T09:56:24.048Z,55.47
2022-12-18T09:59:00.509Z,54.95
2022-12-18T10:01:38.901Z,54.47
2022-12-18T10:04:10.758Z,54.22
2022-12-18T10:06:37.587Z,54.77
2022-12-18T10:09:26.738Z,54.52
2022-12-18T10:12:45.744Z,54.42
2022-12-18T10:15:22.921Z,54.32
2022-12-18T10:18:01.899Z,54.05
2022-12-18T10:20:38.199Z,53.99
2022-12-18T10:23:48.427Z,53.68
2022-12-18T10:26:15.569Z,53.75
2022-12-18T10:28:44.765Z,53.22
2022-12-18T10:31:18.919Z,53.04
2022-12-18T10:33:46.530Z,53.04
2022-12-18T10:36:17.673Z,52.67
2022-12-18T10:38:44.964Z,52.05
2022-12-18T10:41:27.461Z,52.56
2022-12-18T10:44:21.305Z,52.06
2022-12-18T10:46:57.375Z,53.27
2022-12-18T10:49:34.668Z,53.08
2022-12-18T10:52:20.190Z,52.49
2022-12-18T10:55:02.611Z,52.61
2022-12-18T10:57:42.229Z,51.54
2022-12-18T11:00:29.033Z,51.42
2022-12-18T11:02:57.255Z,50.92
2022-12-18T11:05:32.259Z,51.15
2022-12-18T11:08:01.025Z,51.33
2022-12-18T11:10:39.325Z,50.59
2022-12-18T11:13:27.673Z,51.10
2022-12-18T11:16:16.170Z,51.23
2022-12-18T11:18:48.876Z,51.51
2022-12-18T11:21:31.614Z,51.23
2022-12-18T11:24:01.355Z,50.80
2022-12-18T11:26:38.196Z,50.35
2022-12-18T11:29:16.708Z,50.20
2022-12-18T11:31:50.644Z,49.67
2022-12-18T11:34:28.994Z,49.86
2022-12-18T11:37:03.723Z,50.10
2022-12-18T11:39:55.304Z,49.36
2022-12-18T11:42:35.850Z,49.59
2022-12-18T11:45:08.717Z,49.13
2022-12-18T11:47:40.777Z,49.46
2022-12-18T11:50:25.088Z,48.93
2022-12-18T11:53:04.181Z,48.98
2022-12-18T11:56:02.518Z,47.43
2022-12-18T11:58:55.416Z,46.53
2022-12-18T12:01:38.950Z,44.99
2022-12-18T12:04:39.410Z,45.27
2022-12-18T12:07:22.800Z,45.65
2022-12-18T12:10:23.326Z,44.99
2022-12-18T12:13:02.230Z,44.31
2022-12-18T12:15:47.926Z,45.72
2022-12-18T12:18:38.225Z,45.84
2022-12-18T12:21:42.958Z,46.38
2022-12-18T12:24:38.512Z,47.47
2022-12-18T12:27:28.923Z,49.80
2022-12-18T12:30:05.243Z,49.68
2022-12-18T12:32:38.066Z,49.42
2022-12-18T12:35:30.161Z,48.09
2022-12-18T12:38:12.136Z,47.92
2022-12-18T12:41:02.907Z,48.50
2022-12-18T12:46:35.257Z,49.88
2022-12-18T12:49:10.821Z,51.19
2022-12-18T12:51:44.486Z,51.54
2022-12-18T12:54:23.051Z,53.10
2022-12-18T12:57:10.452Z,53.00
2022-12-18T12:59:56.483Z,52.68
2022-12-18T13:02:40.483Z,52.92
2022-12-18T13:05:15.956Z,52.88
2022-12-18T13:07:55.795Z,53.72
2022-12-18T13:10:33.017Z,53.95
2022-12-18T13:13:07.240Z,53.59
2022-12-18T13:13:43.127Z,48.57
2022-12-18T13:15:46.154Z,53.63
2022-12-18T13:18:15.633Z,53.94
2022-12-18T13:20:50.711Z,54.39
2022-12-18T13:23:29.410Z,55.50
2022-12-18T13:25:58.701Z,56.42
2022-12-18T13:28:37.676Z,56.59
2022-12-18T13:31:04.660Z,56.53
2022-12-18T13:34:02.077Z,55.73
2022-12-18T13:36:34.693Z,56.56
2022-12-18T13:39:11.078Z,56.02
2022-12-18T13:41:38.267Z,55.93
2022-12-18T13:44:35.954Z,56.89
2022-12-18T13:47:29.396Z,56.84
2022-12-18T13:50:00.859Z,56.12
2022-12-18T13:52:40.154Z,56.08
2022-12-18T13:55:17.655Z,56.55
2022-12-18T13:57:50.692Z,56.92
2022-12-18T14:00:29.726Z,56.52
2022-12-18T14:02:58.867Z,56.09
2022-12-18T14:05:38.791Z,55.70
2022-12-18T14:08:11.704Z,55.92
2022-12-18T14:10:50.702Z,55.46
2022-12-18T14:13:39.422Z,55.58
2022-12-18T14:16:08.795Z,55.44
2022-12-18T14:18:53.524Z,54.72
2022-12-18T14:21:31.189Z,55.05
2022-12-18T14:24:19.517Z,54.82
2022-12-18T14:26:50.044Z,55.34
2022-12-18T14:29:29.492Z,56.47
2022-12-18T14:32:29.360Z,56.75
2022-12-18T14:34:56.624Z,56.11
2022-12-18T14:37:31.278Z,56.76
2022-12-18T14:40:15.131Z,57.16
2022-12-18T14:42:45.234Z,57.08
2022-12-18T14:45:42.597Z,56.46
2022-12-18T14:48:29.185Z,56.94
2022-12-18T14:51:37.403Z,56.71
2022-12-18T14:54:16.246Z,56.55
2022-12-18T14:56:49.641Z,56.56
2022-12-18T14:59:24.543Z,57.16
2022-12-18T15:02:06.022Z,56.98
2022-12-18T15:04:38.456Z,57.09
2022-12-18T15:07:11.280Z,57.78
2022-12-18T15:09:40.765Z,58.02
2022-12-18T15:12:25.600Z,58.67
2022-12-18T15:14:52.590Z,59.25
2022-12-18T15:17:23.855Z,59.89
2022-12-18T15:19:59.726Z,59.49
2022-12-18T15:22:34.730Z,59.66
2022-12-18T15:25:03.339Z,60.58
2022-12-18T15:27:39.970Z,60.62
2022-12-18T15:30:13.222Z,60.89
2022-12-18T15:32:43.517Z,61.32
2022-12-18T15:35:13.113Z,61.04
2022-12-18T15:37:40.122Z,60.84
2022-12-18T15:40:15.640Z,60.22
2022-12-18T15:43:08.455Z,60.64
2022-12-18T15:45:38.444Z,60.82
2022-12-18T15:48:25.897Z,61.30
2022-12-18T15:50:59.833Z,60.89
2022-12-18T15:53:32.370Z,61.07
2022-12-18T15:56:28.687Z,59.85
2022-12-18T15:59:18.148Z,59.43
2022-12-18T16:01:47.769Z,59.63
2022-12-18T16:04:21.665Z,59.40
2022-12-18T16:09:37.910Z,60.23
2022-12-18T16:12:04.973Z,59.90
2022-12-18T16:14:33.277Z,60.07
2022-12-18T16:17:01.783Z,60.21
2022-12-18T16:19:31.022Z,60.16
2022-12-18T16:21:58.759Z,60.26
2022-12-18T16:24:30.100Z,59.51
2022-12-18T16:26:57.613Z,60.16
2022-12-18T16:29:28.280Z,59.76
2022-12-18T16:31:59.220Z,59.41
2022-12-18T16:34:29.303Z,59.49
2022-12-18T16:37:04.673Z,59.25
2022-12-18T16:39:35.100Z,59.14
2022-12-18T16:42:05.812Z,59.06
2022-12-18T16:44:33.626Z,59.23
2022-12-18T16:47:02.899Z,59.75
2022-12-18T16:49:32.609Z,59.50
2022-12-18T16:52:05.265Z,59.30
2022-12-18T16:54:35.775Z,58.94
2022-12-18T16:57:08.200Z,58.70
2022-12-18T16:59:36.267Z,59.30
2022-12-18T17:02:03.554Z,59.56
2022-12-18T17:04:34.204Z,59.00
2022-12-18T17:07:01.828Z,60.25
2022-12-18T17:09:35.342Z,59.15
2022-12-18T17:12:10.540Z,59.36
2022-12-18T17:14:37.581Z,58.96
2022-12-18T17:17:20.879Z,58.93
2022-12-18T17:19:53.848Z,59.29
2022-12-18T17:22:26.926Z,58.69
2022-12-18T17:24:56.870Z,59.21
2022-12-18T17:27:23.668Z,58.72
2022-12-18T17:29:51.088Z,58.84
2022-12-18T17:32:18.077Z,59.66
2022-12-18T17:34:45.016Z,59.55
2022-12-18T17:37:11.810Z,59.70
2022-12-18T17:39:38.477Z,59.84
2022-12-18T17:42:05.336Z,59.85
2022-12-18T17:44:33.995Z,59.09
2022-12-18T17:47:00.724Z,59.04
2022-12-18T17:49:32.509Z,59.30
2022-12-18T17:52:02.521Z,59.19
2022-12-18T17:54:31.721Z,59.01
2022-12-18T17:57:00.100Z,59.23
2022-12-18T17:59:27.134Z,59.38
2022-12-18T18:01:54.123Z,59.27
2022-12-18T18:04:22.929Z,58.48
2022-12-18T18:06:50.560Z,58.89
2022-12-18T18:09:19.562Z,59.08
2022-12-18T18:12:04.708Z,59.07
2022-12-18T18:14:31.913Z,59.56
2022-12-18T18:17:04.102Z,58.85
2022-12-18T18:19:35.104Z,59.45
2022-12-18T18:22:02.938Z,58.79
2022-12-18T18:24:30.493Z,58.97
2022-12-18T18:27:00.028Z,58.13
2022-12-18T18:29:28.313Z,58.16
2022-12-18T18:31:56.084Z,58.69
2022-12-18T18:34:24.435Z,58.75
2022-12-18T18:36:51.734Z,58.11
2022-12-18T18:39:19.187Z,58.64
2022-12-18T18:41:47.953Z,58.80
2022-12-18T18:44:14.959Z,58.39
2022-12-18T18:46:41.714Z,58.25
2022-12-18T18:49:08.459Z,58.16
2022-12-18T18:51:35.583Z,58.17
2022-12-18T18:54:02.268Z,58.98
2022-12-18T18:59:15.954Z,58.92
2022-12-18T19:01:43.069Z,58.60
2022-12-18T19:04:12.884Z,58.76
2022-12-18T19:06:50.104Z,59.03
2022-12-18T19:09:17.324Z,59.46
2022-12-18T19:12:05.422Z,59.14
2022-12-18T19:14:35.833Z,59.56
2022-12-18T19:17:02.826Z,59.41
2022-12-18T19:19:33.107Z,59.77
2022-12-18T19:21:59.714Z,60.31
2022-12-18T19:24:35.998Z,59.11
2022-12-18T19:27:05.258Z,59.04
2022-12-18T19:29:32.327Z,59.66
2022-12-18T19:32:04.505Z,59.00
2022-12-18T19:34:34.000Z,58.86
2022-12-18T19:37:01.278Z,58.42
2022-12-18T19:39:27.981Z,59.01
2022-12-18T19:41:55.536Z,59.03
2022-12-18T19:44:22.627Z,58.43
2022-12-18T19:46:52.618Z,58.76
2022-12-18T19:49:19.297Z,58.34
2022-12-18T19:51:46.267Z,58.02
2022-12-18T19:54:17.463Z,58.30
2022-12-18T19:56:45.053Z,57.82
2022-12-18T19:59:11.900Z,57.50
2022-12-18T20:01:39.106Z,56.94
2022-12-18T20:04:09.306Z,57.00
2022-12-18T20:06:45.932Z,57.00
2022-12-18T20:09:12.622Z,57.74
2022-12-18T20:11:41.511Z,57.53
2022-12-18T20:14:12.235Z,57.63
2022-12-18T20:16:41.940Z,58.11
2022-12-18T20:19:10.908Z,57.80
2022-12-18T20:21:37.952Z,57.63
2022-12-18T20:24:04.753Z,57.00
2022-12-18T20:26:33.708Z,57.54
2022-12-18T20:29:11.095Z,57.92
2022-12-18T20:31:41.216Z,57.82
2022-12-18T20:34:11.426Z,57.79
2022-12-18T20:36:38.693Z,57.71
2022-12-18T20:39:08.735Z,58.10
2022-12-18T20:41:37.943Z,57.61
2022-12-18T20:44:21.788Z,57.83
2022-12-18T20:46:54.777Z,57.43
2022-12-18T20:49:22.580Z,57.88
2022-12-18T20:51:57.135Z,58.39
2022-12-18T20:54:24.893Z,58.54
2022-12-18T20:56:54.304Z,58.78
2022-12-18T20:59:23.046Z,58.75
2022-12-18T21:01:50.090Z,59.21
2022-12-18T21:04:18.590Z,58.72
2022-12-18T21:06:53.280Z,58.70
2022-12-18T21:09:23.150Z,58.68
2022-12-18T21:12:08.825Z,58.18
2022-12-18T21:14:38.673Z,58.91
2022-12-18T21:17:05.882Z,58.54
2022-12-18T21:19:32.493Z,58.25
2022-12-18T21:22:01.769Z,58.08
2022-12-18T21:24:28.870Z,58.13
2022-12-18T21:26:59.596Z,57.61
2022-12-18T21:29:26.510Z,58.93
2022-12-18T21:31:54.664Z,58.35
2022-12-18T21:34:22.643Z,58.31
2022-12-18T21:36:49.750Z,58.39
2022-12-18T21:39:16.923Z,58.38
2022-12-18T21:42:02.243Z,58.32
2022-12-18T21:44:29.447Z,58.92
2022-12-18T21:47:02.466Z,58.71
2022-12-18T21:49:36.327Z,58.34
2022-12-18T21:52:02.951Z,57.51
2022-12-18T21:54:30.101Z,57.76
2022-12-18T21:57:00.925Z,58.35
2022-12-18T21:59:29.346Z,57.35
2022-12-18T22:01:58.142Z,56.91
2022-12-18T22:04:25.370Z,57.45
2022-12-18T22:06:55.551Z,56.79
2022-12-18T22:09:25.171Z,57.22
2022-12-18T22:11:52.234Z,57.05
2022-12-18T22:14:19.587Z,57.19
2022-12-18T22:16:46.527Z,57.83
2022-12-18T22:19:14.176Z,56.82
2022-12-18T22:21:46.601Z,57.04
2022-12-18T22:24:14.717Z,57.22
2022-12-18T22:26:41.710Z,57.02
2022-12-18T22:29:31.588Z,56.49
2022-12-18T22:32:00.395Z,56.49
2022-12-18T22:34:27.091Z,56.35
2022-12-18T22:36:53.689Z,56.43
2022-12-18T22:39:23.414Z,56.24
2022-12-18T22:41:51.272Z,56.26
2022-12-18T22:44:18.289Z,56.59
2022-12-18T22:46:46.734Z,56.12
2022-12-18T22:49:18.557Z,56.50
2022-12-18T22:51:45.195Z,56.45
2022-12-18T22:54:12.505Z,55.84
2022-12-18T22:56:39.531Z,55.88
2022-12-18T22:59:06.151Z,55.80
2022-12-18T23:01:33.324Z,55.54
2022-12-18T23:04:04.477Z,56.11
2022-12-18T23:06:31.134Z,55.45
2022-12-18T23:08:58.192Z,55.90
2022-12-18T23:11:25.820Z,56.64
2022-12-18T23:13:55.732Z,56.97
2022-12-18T23:16:25.663Z,56.02
2022-12-18T23:18:55.662Z,55.38
2022-12-18T23:21:25.748Z,55.72
2022-12-18T23:23:52.770Z,55.64
2022-12-18T23:26:22.642Z,56.67
2022-12-18T23:28:50.339Z,56.82
2022-12-18T23:31:19.078Z,57.07
2022-12-18T23:33:46.647Z,57.24
2022-12-18T23:36:13.905Z,56.24
2022-12-18T23:38:41.287Z,56.29
2022-12-18T23:41:08.890Z,56.08
2022-12-18T23:43:35.651Z,56.49
2022-12-18T23:46:02.314Z,56.35
2022-12-18T23:48:29.064Z,56.21
2022-12-18T23:50:55.946Z,55.61
2022-12-18T23:53:22.451Z,55.92
2022-12-18T23:55:51.446Z,55.33
2022-12-18T23:58:19.989Z,54.92
